sensor_id;sensor_type;location;lat;lon;timestamp;P1;durP1;ratioP1;P2;durP2;ratioP2
41923;SDS011;27613;48.116;11.656;2024-02-15T00:01:30;2.03;;;1.20;;
41923;SDS011;27613;48.116;11.656;2024-02-15T00:03:56;1.65;;;1.20;;
41923;SDS011;27613;48.116;11.656;2024-02-15T00:06:22;1.95;;;1.17;;
41923;SDS011;27613;48.116;11.656;2024-02-15T00:08:48;1.85;;;1.33;;
41923;SDS011;27613;48.116;11.656;2024-02-15T00:11:17;2.05;;;1.38;;
41923;SDS011;27613;48.116;11.656;2024-02-15T00:13:42;1.23;;;1.02;;
41923;SDS011;27613;48.116;11.656;2024-02-15T00:16:08;1.77;;;1.20;;
41923;SDS011;27613;48.116;11.656;2024-02-15T00:18:37;2.20;;;1.13;;
41923;SDS011;27613;48.116;11.656;2024-02-15T00:21:02;1.45;;;0.95;;
41923;SDS011;27613;48.116;11.656;2024-02-15T00:23:29;1.48;;;0.90;;
41923;SDS011;27613;48.116;11.656;2024-02-15T00:25:54;2.45;;;1.27;;
41923;SDS011;27613;48.116;11.656;2024-02-15T00:28:20;1.65;;;1.17;;
41923;SDS011;27613;48.116;11.656;2024-02-15T00:30:46;2.25;;;1.25;;
41923;SDS011;27613;48.116;11.656;2024-02-15T00:33:12;1.45;;;1.00;;
41923;SDS011;27613;48.116;11.656;2024-02-15T00:35:38;1.67;;;1.00;;
41923;SDS011;27613;48.116;11.656;2024-02-15T00:38:03;1.45;;;1.08;;
41923;SDS011;27613;48.116;11.656;2024-02-15T00:40:29;1.13;;;0.90;;
41923;SDS011;27613;48.116;11.656;2024-02-15T00:42:54;1.40;;;1.08;;
41923;SDS011;27613;48.116;11.656;2024-02-15T00:45:20;1.98;;;1.20;;
41923;SDS011;27613;48.116;11.656;2024-02-15T00:47:45;1.25;;;1.00;;
41923;SDS011;27613;48.116;11.656;2024-02-15T00:50:11;1.45;;;1.05;;
41923;SDS011;27613;48.116;11.656;2024-02-15T00:52:36;0.93;;;0.70;;
41923;SDS011;27613;48.116;11.656;2024-02-15T00:55:02;1.40;;;0.93;;
41923;SDS011;27613;48.116;11.656;2024-02-15T00:57:27;1.52;;;1.10;;
41923;SDS011;27613;48.116;11.656;2024-02-15T00:59:53;1.45;;;0.75;;
41923;SDS011;27613;48.116;11.656;2024-02-15T01:02:18;2.40;;;1.10;;
41923;SDS011;27613;48.116;11.656;2024-02-15T01:04:44;1.63;;;1.10;;
41923;SDS011;27613;48.116;11.656;2024-02-15T01:07:12;1.10;;;0.93;;
41923;SDS011;27613;48.116;11.656;2024-02-15T01:09:38;1.50;;;1.17;;
41923;SDS011;27613;48.116;11.656;2024-02-15T01:12:04;1.75;;;0.90;;
41923;SDS011;27613;48.116;11.656;2024-02-15T01:14:29;1.55;;;0.98;;
41923;SDS011;27613;48.116;11.656;2024-02-15T01:16:56;1.55;;;1.00;;
41923;SDS011;27613;48.116;11.656;2024-02-15T01:19:21;1.17;;;0.93;;
41923;SDS011;27613;48.116;11.656;2024-02-15T01:21:47;1.15;;;1.00;;
41923;SDS011;27613;48.116;11.656;2024-02-15T01:24:12;1.00;;;0.88;;
41923;SDS011;27613;48.116;11.656;2024-02-15T01:26:38;1.23;;;1.00;;
41923;SDS011;27613;48.116;11.656;2024-02-15T01:29:03;1.60;;;0.82;;
41923;SDS011;27613;48.116;11.656;2024-02-15T01:31:29;1.90;;;1.10;;
41923;SDS011;27613;48.116;11.656;2024-02-15T01:33:55;2.30;;;1.33;;
41923;SDS011;27613;48.116;11.656;2024-02-15T01:36:20;2.05;;;1.20;;
41923;SDS011;27613;48.116;11.656;2024-02-15T01:38:46;1.17;;;0.90;;
41923;SDS011;27613;48.116;11.656;2024-02-15T01:41:11;1.40;;;0.95;;
41923;SDS011;27613;48.116;11.656;2024-02-15T01:43:37;1.20;;;0.88;;
41923;SDS011;27613;48.116;11.656;2024-02-15T01:46:07;2.05;;;1.33;;
41923;SDS011;27613;48.116;11.656;2024-02-15T01:48:35;1.48;;;1.00;;
41923;SDS011;27613;48.116;11.656;2024-02-15T01:51:01;1.27;;;1.08;;
41923;SDS011;27613;48.116;11.656;2024-02-15T01:53:28;1.35;;;0.98;;
41923;SDS011;27613;48.116;11.656;2024-02-15T01:55:55;1.27;;;0.93;;
41923;SDS011;27613;48.116;11.656;2024-02-15T01:58:22;2.58;;;1.10;;
41923;SDS011;27613;48.116;11.656;2024-02-15T02:00:49;1.15;;;0.80;;
41923;SDS011;27613;48.116;11.656;2024-02-15T02:03:16;1.90;;;0.98;;
41923;SDS011;27613;48.116;11.656;2024-02-15T02:05:42;1.65;;;1.10;;
41923;SDS011;27613;48.116;11.656;2024-02-15T02:08:08;1.67;;;1.10;;
41923;SDS011;27613;48.116;11.656;2024-02-15T02:10:37;0.88;;;0.80;;
41923;SDS011;27613;48.116;11.656;2024-02-15T02:13:03;1.67;;;1.10;;
41923;SDS011;27613;48.116;11.656;2024-02-15T02:15:33;1.88;;;0.93;;
41923;SDS011;27613;48.116;11.656;2024-02-15T02:18:02;0.73;;;0.73;;
41923;SDS011;27613;48.116;11.656;2024-02-15T02:20:32;3.20;;;1.17;;
41923;SDS011;27613;48.116;11.656;2024-02-15T02:23:03;1.40;;;0.90;;
41923;SDS011;27613;48.116;11.656;2024-02-15T02:25:33;1.23;;;0.82;;
41923;SDS011;27613;48.116;11.656;2024-02-15T02:27:59;1.80;;;0.90;;
41923;SDS011;27613;48.116;11.656;2024-02-15T02:30:25;1.13;;;0.80;;
41923;SDS011;27613;48.116;11.656;2024-02-15T02:32:54;1.60;;;1.00;;
41923;SDS011;27613;48.116;11.656;2024-02-15T02:35:21;1.35;;;0.90;;
41923;SDS011;27613;48.116;11.656;2024-02-15T02:37:46;1.17;;;0.80;;
41923;SDS011;27613;48.116;11.656;2024-02-15T02:40:12;0.73;;;0.73;;
41923;SDS011;27613;48.116;11.656;2024-02-15T02:42:48;1.65;;;0.95;;
41923;SDS011;27613;48.116;11.656;2024-02-15T02:45:15;2.17;;;1.15;;
41923;SDS011;27613;48.116;11.656;2024-02-15T02:47:40;1.20;;;0.90;;
41923;SDS011;27613;48.116;11.656;2024-02-15T02:50:06;1.35;;;0.80;;
41923;SDS011;27613;48.116;11.656;2024-02-15T02:52:33;1.52;;;0.90;;
41923;SDS011;27613;48.116;11.656;2024-02-15T02:54:58;1.42;;;0.90;;
41923;SDS011;27613;48.116;11.656;2024-02-15T02:57:24;2.40;;;0.80;;
41923;SDS011;27613;48.116;11.656;2024-02-15T02:59:50;1.00;;;0.70;;
41923;SDS011;27613;48.116;11.656;2024-02-15T03:02:16;1.13;;;0.88;;
41923;SDS011;27613;48.116;11.656;2024-02-15T03:04:42;2.53;;;1.05;;
41923;SDS011;27613;48.116;11.656;2024-02-15T03:07:08;1.25;;;0.90;;
41923;SDS011;27613;48.116;11.656;2024-02-15T03:09:34;1.17;;;0.90;;
41923;SDS011;27613;48.116;11.656;2024-02-15T03:12:02;1.10;;;0.88;;
41923;SDS011;27613;48.116;11.656;2024-02-15T03:14:28;1.30;;;0.90;;
41923;SDS011;27613;48.116;11.656;2024-02-15T03:16:55;1.58;;;0.88;;
41923;SDS011;27613;48.116;11.656;2024-02-15T03:19:20;1.65;;;0.90;;
41923;SDS011;27613;48.116;11.656;2024-02-15T03:21:47;1.75;;;1.05;;
41923;SDS011;27613;48.116;11.656;2024-02-15T03:24:13;1.50;;;0.80;;
41923;SDS011;27613;48.116;11.656;2024-02-15T03:26:38;1.63;;;1.10;;
41923;SDS011;27613;48.116;11.656;2024-02-15T03:29:05;1.42;;;1.00;;
41923;SDS011;27613;48.116;11.656;2024-02-15T03:31:33;0.88;;;0.70;;
41923;SDS011;27613;48.116;11.656;2024-02-15T03:34:00;1.38;;;1.23;;
41923;SDS011;27613;48.116;11.656;2024-02-15T03:36:26;1.45;;;1.20;;
41923;SDS011;27613;48.116;11.656;2024-02-15T03:38:52;1.48;;;1.10;;
41923;SDS011;27613;48.116;11.656;2024-02-15T03:41:18;2.03;;;1.20;;
41923;SDS011;27613;48.116;11.656;2024-02-15T03:43:44;2.45;;;0.88;;
41923;SDS011;27613;48.116;11.656;2024-02-15T03:46:11;1.98;;;1.10;;
41923;SDS011;27613;48.116;11.656;2024-02-15T03:48:38;1.60;;;1.00;;
41923;SDS011;27613;48.116;11.656;2024-02-15T03:51:04;1.77;;;1.15;;
41923;SDS011;27613;48.116;11.656;2024-02-15T03:53:31;1.00;;;0.82;;
41923;SDS011;27613;48.116;11.656;2024-02-15T03:55:58;1.73;;;1.17;;
41923;SDS011;27613;48.116;11.656;2024-02-15T03:58:25;3.78;;;2.08;;
41923;SDS011;27613;48.116;11.656;2024-02-15T04:00:51;3.67;;;2.15;;
41923;SDS011;27613;48.116;11.656;2024-02-15T04:03:16;1.92;;;1.35;;
41923;SDS011;27613;48.116;11.656;2024-02-15T04:05:42;2.00;;;1.00;;
41923;SDS011;27613;48.116;11.656;2024-02-15T04:08:07;1.25;;;1.10;;
41923;SDS011;27613;48.116;11.656;2024-02-15T04:10:33;2.10;;;0.98;;
41923;SDS011;27613;48.116;11.656;2024-02-15T04:12:59;1.95;;;1.15;;
41923;SDS011;27613;48.116;11.656;2024-02-15T04:15:24;2.10;;;1.30;;
41923;SDS011;27613;48.116;11.656;2024-02-15T04:17:50;1.13;;;1.00;;
41923;SDS011;27613;48.116;11.656;2024-02-15T04:20:21;2.28;;;1.10;;
41923;SDS011;27613;48.116;11.656;2024-02-15T04:22:47;1.73;;;1.15;;
41923;SDS011;27613;48.116;11.656;2024-02-15T04:25:15;2.17;;;1.13;;
41923;SDS011;27613;48.116;11.656;2024-02-15T04:27:45;3.22;;;1.20;;
41923;SDS011;27613;48.116;11.656;2024-02-15T04:30:14;0.82;;;0.80;;
41923;SDS011;27613;48.116;11.656;2024-02-15T04:32:43;1.52;;;1.17;;
41923;SDS011;27613;48.116;11.656;2024-02-15T04:35:08;2.10;;;1.20;;
41923;SDS011;27613;48.116;11.656;2024-02-15T04:37:35;2.55;;;1.10;;
41923;SDS011;27613;48.116;11.656;2024-02-15T04:40:02;1.10;;;1.00;;
41923;SDS011;27613;48.116;11.656;2024-02-15T04:42:35;2.00;;;1.20;;
41923;SDS011;27613;48.116;11.656;2024-02-15T04:45:04;1.67;;;1.05;;
41923;SDS011;27613;48.116;11.656;2024-02-15T04:47:33;1.85;;;1.00;;
41923;SDS011;27613;48.116;11.656;2024-02-15T04:49:59;1.08;;;0.80;;
41923;SDS011;27613;48.116;11.656;2024-02-15T04:52:25;1.42;;;1.05;;
41923;SDS011;27613;48.116;11.656;2024-02-15T04:54:50;1.13;;;1.02;;
41923;SDS011;27613;48.116;11.656;2024-02-15T04:57:18;1.77;;;1.00;;
41923;SDS011;27613;48.116;11.656;2024-02-15T04:59:44;2.67;;;1.42;;
41923;SDS011;27613;48.116;11.656;2024-02-15T05:02:12;1.40;;;0.95;;
41923;SDS011;27613;48.116;11.656;2024-02-15T05:04:38;4.60;;;1.10;;
41923;SDS011;27613;48.116;11.656;2024-02-15T05:07:07;1.15;;;0.80;;
41923;SDS011;27613;48.116;11.656;2024-02-15T05:09:33;1.98;;;1.00;;
41923;SDS011;27613;48.116;11.656;2024-02-15T05:11:59;2.03;;;1.20;;
41923;SDS011;27613;48.116;11.656;2024-02-15T05:14:27;1.40;;;0.90;;
41923;SDS011;27613;48.116;11.656;2024-02-15T05:16:53;1.20;;;1.00;;
41923;SDS011;27613;48.116;11.656;2024-02-15T05:19:18;1.25;;;1.00;;
41923;SDS011;27613;48.116;11.656;2024-02-15T05:21:45;0.95;;;0.85;;
41923;SDS011;27613;48.116;11.656;2024-02-15T05:24:15;1.02;;;0.90;;
41923;SDS011;27613;48.116;11.656;2024-02-15T05:26:43;1.98;;;1.10;;
41923;SDS011;27613;48.116;11.656;2024-02-15T05:29:11;1.75;;;1.02;;
41923;SDS011;27613;48.116;11.656;2024-02-15T05:31:37;1.55;;;1.20;;
41923;SDS011;27613;48.116;11.656;2024-02-15T05:34:04;1.30;;;1.10;;
41923;SDS011;27613;48.116;11.656;2024-02-15T05:36:32;1.60;;;1.10;;
41923;SDS011;27613;48.116;11.656;2024-02-15T05:38:58;1.67;;;1.13;;
41923;SDS011;27613;48.116;11.656;2024-02-15T05:41:24;1.17;;;0.90;;
41923;SDS011;27613;48.116;11.656;2024-02-15T05:43:50;3.50;;;1.50;;
41923;SDS011;27613;48.116;11.656;2024-02-15T05:46:18;1.75;;;1.08;;
41923;SDS011;27613;48.116;11.656;2024-02-15T05:48:47;1.52;;;1.00;;
41923;SDS011;27613;48.116;11.656;2024-02-15T05:51:13;0.88;;;0.70;;
41923;SDS011;27613;48.116;11.656;2024-02-15T05:53:40;1.75;;;1.15;;
41923;SDS011;27613;48.116;11.656;2024-02-15T05:56:06;1.40;;;0.98;;
41923;SDS011;27613;48.116;11.656;2024-02-15T05:58:33;2.63;;;1.40;;
41923;SDS011;27613;48.116;11.656;2024-02-15T06:01:01;2.13;;;1.20;;
41923;SDS011;27613;48.116;11.656;2024-02-15T06:03:33;8.02;;;1.33;;
41923;SDS011;27613;48.116;11.656;2024-02-15T06:06:03;3.22;;;1.27;;
41923;SDS011;27613;48.116;11.656;2024-02-15T06:08:32;2.05;;;1.00;;
41923;SDS011;27613;48.116;11.656;2024-02-15T06:10:58;2.55;;;1.40;;
41923;SDS011;27613;48.116;11.656;2024-02-15T06:13:25;2.20;;;1.35;;
41923;SDS011;27613;48.116;11.656;2024-02-15T06:15:51;2.15;;;1.00;;
41923;SDS011;27613;48.116;11.656;2024-02-15T06:18:19;5.35;;;1.50;;
41923;SDS011;27613;48.116;11.656;2024-02-15T06:20:54;2.20;;;1.30;;
41923;SDS011;27613;48.116;11.656;2024-02-15T06:23:24;1.85;;;1.20;;
41923;SDS011;27613;48.116;11.656;2024-02-15T06:25:51;3.20;;;1.88;;
41923;SDS011;27613;48.116;11.656;2024-02-15T06:28:18;4.50;;;2.35;;
41923;SDS011;27613;48.116;11.656;2024-02-15T06:31:02;2.42;;;1.60;;
41923;SDS011;27613;48.116;11.656;2024-02-15T06:33:47;4.68;;;2.42;;
41923;SDS011;27613;48.116;11.656;2024-02-15T06:36:31;5.75;;;3.08;;
41923;SDS011;27613;48.116;11.656;2024-02-15T06:39:15;7.15;;;3.50;;
41923;SDS011;27613;48.116;11.656;2024-02-15T06:42:00;7.72;;;3.42;;
41923;SDS011;27613;48.116;11.656;2024-02-15T06:44:27;8.27;;;3.35;;
41923;SDS011;27613;48.116;11.656;2024-02-15T06:46:52;6.38;;;2.70;;
41923;SDS011;27613;48.116;11.656;2024-02-15T06:49:18;3.15;;;1.85;;
41923;SDS011;27613;48.116;11.656;2024-02-15T06:51:45;3.88;;;1.88;;
41923;SDS011;27613;48.116;11.656;2024-02-15T06:54:12;5.93;;;2.30;;
41923;SDS011;27613;48.116;11.656;2024-02-15T06:56:38;2.78;;;1.55;;
41923;SDS011;27613;48.116;11.656;2024-02-15T06:59:04;3.17;;;1.95;;
41923;SDS011;27613;48.116;11.656;2024-02-15T07:01:35;4.93;;;1.63;;
41923;SDS011;27613;48.116;11.656;2024-02-15T07:04:00;2.50;;;1.25;;
41923;SDS011;27613;48.116;11.656;2024-02-15T07:06:28;2.72;;;1.45;;
41923;SDS011;27613;48.116;11.656;2024-02-15T07:08:54;4.28;;;1.75;;
41923;SDS011;27613;48.116;11.656;2024-02-15T07:11:21;3.10;;;1.80;;
41923;SDS011;27613;48.116;11.656;2024-02-15T07:13:47;3.28;;;1.33;;
41923;SDS011;27613;48.116;11.656;2024-02-15T07:16:13;1.23;;;0.95;;
41923;SDS011;27613;48.116;11.656;2024-02-15T07:18:40;4.38;;;1.40;;
41923;SDS011;27613;48.116;11.656;2024-02-15T07:21:06;2.33;;;1.50;;
41923;SDS011;27613;48.116;11.656;2024-02-15T07:23:36;3.30;;;1.45;;
41923;SDS011;27613;48.116;11.656;2024-02-15T07:26:02;2.92;;;1.70;;
41923;SDS011;27613;48.116;11.656;2024-02-15T07:28:28;1.80;;;1.13;;
41923;SDS011;27613;48.116;11.656;2024-02-15T07:30:55;1.52;;;1.00;;
41923;SDS011;27613;48.116;11.656;2024-02-15T07:33:21;2.28;;;1.23;;
41923;SDS011;27613;48.116;11.656;2024-02-15T07:35:48;2.20;;;1.27;;
41923;SDS011;27613;48.116;11.656;2024-02-15T07:38:18;2.05;;;1.13;;
41923;SDS011;27613;48.116;11.656;2024-02-15T07:40:47;1.80;;;1.10;;
41923;SDS011;27613;48.116;11.656;2024-02-15T07:43:16;1.98;;;0.98;;
41923;SDS011;27613;48.116;11.656;2024-02-15T07:45:42;6.07;;;1.27;;
41923;SDS011;27613;48.116;11.656;2024-02-15T07:48:07;2.03;;;1.10;;
41923;SDS011;27613;48.116;11.656;2024-02-15T07:50:34;2.35;;;1.02;;
41923;SDS011;27613;48.116;11.656;2024-02-15T07:53:02;2.00;;;1.40;;
41923;SDS011;27613;48.116;11.656;2024-02-15T07:55:28;2.03;;;1.15;;
41923;SDS011;27613;48.116;11.656;2024-02-15T07:57:53;7.95;;;1.30;;
41923;SDS011;27613;48.116;11.656;2024-02-15T08:00:20;2.15;;;1.20;;
41923;SDS011;27613;48.116;11.656;2024-02-15T08:02:46;2.35;;;1.20;;
41923;SDS011;27613;48.116;11.656;2024-02-15T08:05:12;2.88;;;1.08;;
41923;SDS011;27613;48.116;11.656;2024-02-15T08:07:42;1.60;;;1.13;;
41923;SDS011;27613;48.116;11.656;2024-02-15T08:10:09;2.47;;;1.10;;
41923;SDS011;27613;48.116;11.656;2024-02-15T08:12:44;6.95;;;1.83;;
41923;SDS011;27613;48.116;11.656;2024-02-15T08:15:11;4.20;;;1.20;;
41923;SDS011;27613;48.116;11.656;2024-02-15T08:17:40;1.15;;;0.80;;
41923;SDS011;27613;48.116;11.656;2024-02-15T08:20:10;3.08;;;1.40;;
41923;SDS011;27613;48.116;11.656;2024-02-15T08:22:36;3.42;;;1.38;;
41923;SDS011;27613;48.116;11.656;2024-02-15T08:25:04;1.90;;;1.10;;
41923;SDS011;27613;48.116;11.656;2024-02-15T08:27:38;1.48;;;0.90;;
41923;SDS011;27613;48.116;11.656;2024-02-15T08:30:11;3.42;;;1.05;;
41923;SDS011;27613;48.116;11.656;2024-02-15T08:32:38;1.38;;;0.90;;
41923;SDS011;27613;48.116;11.656;2024-02-15T08:35:04;3.78;;;1.08;;
41923;SDS011;27613;48.116;11.656;2024-02-15T08:37:31;2.17;;;1.00;;
41923;SDS011;27613;48.116;11.656;2024-02-15T08:39:59;1.73;;;1.20;;
41923;SDS011;27613;48.116;11.656;2024-02-15T08:42:25;1.50;;;1.00;;
41923;SDS011;27613;48.116;11.656;2024-02-15T08:44:50;2.90;;;1.58;;
41923;SDS011;27613;48.116;11.656;2024-02-15T08:47:16;0.95;;;0.80;;
41923;SDS011;27613;48.116;11.656;2024-02-15T08:49:42;0.88;;;0.70;;
41923;SDS011;27613;48.116;11.656;2024-02-15T08:52:07;1.92;;;0.90;;
41923;SDS011;27613;48.116;11.656;2024-02-15T08:54:33;1.13;;;0.90;;
41923;SDS011;27613;48.116;11.656;2024-02-15T08:56:59;1.40;;;0.82;;
41923;SDS011;27613;48.116;11.656;2024-02-15T08:59:26;1.90;;;0.95;;
41923;SDS011;27613;48.116;11.656;2024-02-15T09:01:53;1.70;;;1.00;;
41923;SDS011;27613;48.116;11.656;2024-02-15T09:04:19;1.30;;;1.02;;
41923;SDS011;27613;48.116;11.656;2024-02-15T09:06:46;1.05;;;0.73;;
41923;SDS011;27613;48.116;11.656;2024-02-15T09:09:12;0.80;;;0.68;;
41923;SDS011;27613;48.116;11.656;2024-02-15T09:11:37;1.48;;;1.00;;
41923;SDS011;27613;48.116;11.656;2024-02-15T09:14:03;2.33;;;1.00;;
41923;SDS011;27613;48.116;11.656;2024-02-15T09:16:28;1.70;;;1.00;;
41923;SDS011;27613;48.116;11.656;2024-02-15T09:18:54;1.80;;;0.98;;
41923;SDS011;27613;48.116;11.656;2024-02-15T09:21:20;1.27;;;1.00;;
41923;SDS011;27613;48.116;11.656;2024-02-15T09:23:46;1.63;;;0.85;;
41923;SDS011;27613;48.116;11.656;2024-02-15T09:26:13;3.58;;;1.05;;
41923;SDS011;27613;48.116;11.656;2024-02-15T09:28:39;2.67;;;0.90;;
41923;SDS011;27613;48.116;11.656;2024-02-15T09:31:05;2.88;;;1.10;;
41923;SDS011;27613;48.116;11.656;2024-02-15T09:33:31;1.60;;;0.95;;
41923;SDS011;27613;48.116;11.656;2024-02-15T09:35:56;1.20;;;1.00;;
41923;SDS011;27613;48.116;11.656;2024-02-15T09:38:22;1.48;;;0.60;;
41923;SDS011;27613;48.116;11.656;2024-02-15T09:40:50;2.92;;;0.93;;
41923;SDS011;27613;48.116;11.656;2024-02-15T09:43:16;0.82;;;0.77;;
41923;SDS011;27613;48.116;11.656;2024-02-15T09:45:42;0.90;;;0.80;;
41923;SDS011;27613;48.116;11.656;2024-02-15T09:48:07;2.13;;;0.98;;
41923;SDS011;27613;48.116;11.656;2024-02-15T09:50:35;1.77;;;0.80;;
41923;SDS011;27613;48.116;11.656;2024-02-15T09:53:07;4.70;;;0.70;;
41923;SDS011;27613;48.116;11.656;2024-02-15T09:55:34;0.88;;;0.70;;
41923;SDS011;27613;48.116;11.656;2024-02-15T09:58:00;2.35;;;0.85;;
41923;SDS011;27613;48.116;11.656;2024-02-15T10:00:26;0.88;;;0.60;;
41923;SDS011;27613;48.116;11.656;2024-02-15T10:02:51;1.58;;;0.93;;
41923;SDS011;27613;48.116;11.656;2024-02-15T10:05:20;1.58;;;0.80;;
41923;SDS011;27613;48.116;11.656;2024-02-15T10:07:48;1.05;;;0.70;;
41923;SDS011;27613;48.116;11.656;2024-02-15T10:10:22;0.93;;;0.70;;
41923;SDS011;27613;48.116;11.656;2024-02-15T10:12:50;3.15;;;0.80;;
41923;SDS011;27613;48.116;11.656;2024-02-15T10:17:58;1.27;;;0.70;;
41923;SDS011;27613;48.116;11.656;2024-02-15T10:20:25;1.02;;;0.60;;
41923;SDS011;27613;48.116;11.656;2024-02-15T10:22:52;1.98;;;0.70;;
41923;SDS011;27613;48.116;11.656;2024-02-15T10:25:19;1.73;;;0.60;;
41923;SDS011;27613;48.116;11.656;2024-02-15T10:27:45;3.13;;;0.60;;
41923;SDS011;27613;48.116;11.656;2024-02-15T10:30:14;0.45;;;0.45;;
41923;SDS011;27613;48.116;11.656;2024-02-15T10:32:41;1.60;;;0.70;;
41923;SDS011;27613;48.116;11.656;2024-02-15T10:35:07;1.02;;;0.60;;
41923;SDS011;27613;48.116;11.656;2024-02-15T10:37:33;1.70;;;0.70;;
41923;SDS011;27613;48.116;11.656;2024-02-15T10:40:04;0.90;;;0.50;;
41923;SDS011;27613;48.116;11.656;2024-02-15T10:42:34;2.10;;;1.10;;
41923;SDS011;27613;48.116;11.656;2024-02-15T10:45:04;1.10;;;0.73;;
41923;SDS011;27613;48.116;11.656;2024-02-15T10:47:33;1.08;;;0.70;;
41923;SDS011;27613;48.116;11.656;2024-02-15T10:50:01;1.85;;;0.85;;
41923;SDS011;27613;48.116;11.656;2024-02-15T10:52:28;2.00;;;0.98;;
41923;SDS011;27613;48.116;11.656;2024-02-15T10:55:01;1.17;;;0.82;;
41923;SDS011;27613;48.116;11.656;2024-02-15T10:57:30;0.55;;;0.55;;
41923;SDS011;27613;48.116;11.656;2024-02-15T10:59:58;0.75;;;0.50;;
41923;SDS011;27613;48.116;11.656;2024-02-15T11:02:36;1.92;;;0.63;;
41923;SDS011;27613;48.116;11.656;2024-02-15T11:05:05;0.70;;;0.63;;
41923;SDS011;27613;48.116;11.656;2024-02-15T11:07:35;1.25;;;0.75;;
41923;SDS011;27613;48.116;11.656;2024-02-15T11:10:05;2.90;;;0.80;;
41923;SDS011;27613;48.116;11.656;2024-02-15T11:12:33;0.98;;;0.82;;
41923;SDS011;27613;48.116;11.656;2024-02-15T11:15:00;1.15;;;0.80;;
41923;SDS011;27613;48.116;11.656;2024-02-15T11:17:44;1.58;;;0.85;;
41923;SDS011;27613;48.116;11.656;2024-02-15T11:22:57;1.17;;;0.80;;
41923;SDS011;27613;48.116;11.656;2024-02-15T11:30:54;0.77;;;0.60;;
41923;SDS011;27613;48.116;11.656;2024-02-15T11:33:30;0.55;;;0.55;;
41923;SDS011;27613;48.116;11.656;2024-02-15T11:36:05;0.50;;;0.50;;
41923;SDS011;27613;48.116;11.656;2024-02-15T11:38:32;0.88;;;0.60;;
41923;SDS011;27613;48.116;11.656;2024-02-15T11:41:01;0.63;;;0.63;;
41923;SDS011;27613;48.116;11.656;2024-02-15T11:46:19;0.60;;;0.60;;
41923;SDS011;27613;48.116;11.656;2024-02-15T11:54:08;0.73;;;0.60;;
41923;SDS011;27613;48.116;11.656;2024-02-15T11:59:12;0.52;;;0.52;;
41923;SDS011;27613;48.116;11.656;2024-02-15T12:01:53;1.33;;;0.60;;
41923;SDS011;27613;48.116;11.656;2024-02-15T12:04:38;0.60;;;0.50;;
41923;SDS011;27613;48.116;11.656;2024-02-15T12:07:24;1.58;;;0.68;;
41923;SDS011;27613;48.116;11.656;2024-02-15T12:10:17;0.93;;;0.68;;
41923;SDS011;27613;48.116;11.656;2024-02-15T12:13:02;0.65;;;0.63;;
41923;SDS011;27613;48.116;11.656;2024-02-15T12:15:57;0.90;;;0.70;;
41923;SDS011;27613;48.116;11.656;2024-02-15T12:18:41;0.82;;;0.50;;
41923;SDS011;27613;48.116;11.656;2024-02-15T12:21:08;0.73;;;0.65;;
41923;SDS011;27613;48.116;11.656;2024-02-15T12:23:37;1.08;;;0.60;;
41923;SDS011;27613;48.116;11.656;2024-02-15T12:26:03;0.93;;;0.60;;
41923;SDS011;27613;48.116;11.656;2024-02-15T12:28:29;1.23;;;0.80;;
41923;SDS011;27613;48.116;11.656;2024-02-15T12:30:56;1.88;;;0.73;;
41923;SDS011;27613;48.116;11.656;2024-02-15T12:33:22;0.70;;;0.60;;
41923;SDS011;27613;48.116;11.656;2024-02-15T12:35:48;1.58;;;0.90;;
41923;SDS011;27613;48.116;11.656;2024-02-15T12:38:17;1.67;;;0.90;;
41923;SDS011;27613;48.116;11.656;2024-02-15T12:40:43;1.58;;;0.90;;
41923;SDS011;27613;48.116;11.656;2024-02-15T12:43:10;1.63;;;0.70;;
41923;SDS011;27613;48.116;11.656;2024-02-15T12:45:37;1.67;;;0.85;;
41923;SDS011;27613;48.116;11.656;2024-02-15T12:48:06;1.02;;;0.63;;
41923;SDS011;27613;48.116;11.656;2024-02-15T12:50:35;2.28;;;0.90;;
41923;SDS011;27613;48.116;11.656;2024-02-15T12:53:01;1.50;;;1.00;;
41923;SDS011;27613;48.116;11.656;2024-02-15T12:55:31;1.50;;;0.68;;
41923;SDS011;27613;48.116;11.656;2024-02-15T12:58:01;0.63;;;0.60;;
41923;SDS011;27613;48.116;11.656;2024-02-15T13:00:29;1.17;;;0.90;;
41923;SDS011;27613;48.116;11.656;2024-02-15T13:02:58;1.80;;;0.90;;
41923;SDS011;27613;48.116;11.656;2024-02-15T13:05:25;1.67;;;0.90;;
41923;SDS011;27613;48.116;11.656;2024-02-15T13:07:51;0.90;;;0.80;;
41923;SDS011;27613;48.116;11.656;2024-02-15T13:10:23;1.83;;;0.85;;
41923;SDS011;27613;48.116;11.656;2024-02-15T13:12:50;1.52;;;0.70;;
41923;SDS011;27613;48.116;11.656;2024-02-15T13:15:20;1.55;;;0.70;;
41923;SDS011;27613;48.116;11.656;2024-02-15T13:17:47;0.85;;;0.80;;
41923;SDS011;27613;48.116;11.656;2024-02-15T13:20:16;1.88;;;0.68;;
41923;SDS011;27613;48.116;11.656;2024-02-15T13:22:45;2.13;;;0.98;;
41923;SDS011;27613;48.116;11.656;2024-02-15T13:25:12;1.23;;;0.88;;
41923;SDS011;27613;48.116;11.656;2024-02-15T13:27:41;1.58;;;0.90;;
41923;SDS011;27613;48.116;11.656;2024-02-15T13:30:08;0.75;;;0.52;;
41923;SDS011;27613;48.116;11.656;2024-02-15T13:32:40;1.20;;;0.80;;
41923;SDS011;27613;48.116;11.656;2024-02-15T13:35:07;1.30;;;0.80;;
41923;SDS011;27613;48.116;11.656;2024-02-15T13:37:41;1.20;;;0.88;;
41923;SDS011;27613;48.116;11.656;2024-02-15T13:40:10;1.10;;;0.88;;
41923;SDS011;27613;48.116;11.656;2024-02-15T13:42:43;6.93;;;1.05;;
41923;SDS011;27613;48.116;11.656;2024-02-15T13:45:17;1.20;;;0.70;;
41923;SDS011;27613;48.116;11.656;2024-02-15T13:47:45;2.20;;;0.80;;
41923;SDS011;27613;48.116;11.656;2024-02-15T13:50:12;0.70;;;0.70;;
41923;SDS011;27613;48.116;11.656;2024-02-15T13:52:40;1.30;;;0.82;;
41923;SDS011;27613;48.116;11.656;2024-02-15T13:55:08;1.00;;;0.70;;
41923;SDS011;27613;48.116;11.656;2024-02-15T13:57:38;1.92;;;0.70;;
41923;SDS011;27613;48.116;11.656;2024-02-15T14:00:06;0.98;;;0.63;;
41923;SDS011;27613;48.116;11.656;2024-02-15T14:02:38;0.88;;;0.60;;
41923;SDS011;27613;48.116;11.656;2024-02-15T14:05:04;1.40;;;0.70;;
41923;SDS011;27613;48.116;11.656;2024-02-15T14:07:33;2.60;;;0.70;;
41923;SDS011;27613;48.116;11.656;2024-02-15T14:10:01;2.97;;;0.93;;
41923;SDS011;27613;48.116;11.656;2024-02-15T14:12:28;3.58;;;0.70;;
41923;SDS011;27613;48.116;11.656;2024-02-15T14:14:54;0.85;;;0.70;;
41923;SDS011;27613;48.116;11.656;2024-02-15T14:17:19;1.13;;;0.70;;
41923;SDS011;27613;48.116;11.656;2024-02-15T14:19:45;1.52;;;0.80;;
41923;SDS011;27613;48.116;11.656;2024-02-15T14:22:11;1.17;;;0.77;;
41923;SDS011;27613;48.116;11.656;2024-02-15T14:24:41;0.60;;;0.60;;
41923;SDS011;27613;48.116;11.656;2024-02-15T14:27:08;1.02;;;0.80;;
41923;SDS011;27613;48.116;11.656;2024-02-15T14:29:34;3.22;;;0.70;;
41923;SDS011;27613;48.116;11.656;2024-02-15T14:32:02;1.40;;;0.70;;
41923;SDS011;27613;48.116;11.656;2024-02-15T14:34:48;1.35;;;0.80;;
41923;SDS011;27613;48.116;11.656;2024-02-15T14:37:14;0.98;;;0.60;;
41923;SDS011;27613;48.116;11.656;2024-02-15T14:39:42;1.00;;;0.70;;
41923;SDS011;27613;48.116;11.656;2024-02-15T14:42:08;1.35;;;0.77;;
41923;SDS011;27613;48.116;11.656;2024-02-15T14:44:33;0.75;;;0.60;;
41923;SDS011;27613;48.116;11.656;2024-02-15T14:46:59;5.20;;;0.85;;
41923;SDS011;27613;48.116;11.656;2024-02-15T14:49:24;0.93;;;0.70;;
41923;SDS011;27613;48.116;11.656;2024-02-15T14:51:50;1.40;;;0.85;;
41923;SDS011;27613;48.116;11.656;2024-02-15T14:54:16;2.42;;;1.08;;
41923;SDS011;27613;48.116;11.656;2024-02-15T14:56:44;1.67;;;1.13;;
41923;SDS011;27613;48.116;11.656;2024-02-15T14:59:10;1.92;;;1.25;;